Time;durP1;ratioP1;P1;durP2;ratioP2;P2;SDS_P1;SDS_P2;PMS_P1;PMS_P2;Temp;Humidity;BMP_temperature;BMP_pressure;BME280_temperature;BME280_humidity;BME280_pressure;Samples;Min_cycle;Max_cycle;Signal;HPM_P1;HPM_P2
2023/01/18 00:00:07;;;;;;;9.35;5.88;;;;;3.00;95656.00;;;;4901231;29;20060;-62
2023/01/18 00:02:34;;;;;;;10.70;5.53;;;;;2.80;95650.00;;;;4898635;29;20048;-62
2023/01/18 00:05:01;;;;;;;7.72;5.35;;;;;2.80;95657.00;;;;4899387;29;20051;-62
2023/01/18 00:07:27;;;;;;;8.75;5.50;;;;;2.80;95655.00;;;;4899945;29;20072;-61
2023/01/18 00:09:55;;;;;;;12.20;6.03;;;;;2.70;95649.00;;;;4899961;29;20101;-63
2023/01/18 00:12:22;;;;;;;11.35;6.10;;;;;2.70;95653.00;;;;4900113;29;20557;-62
2023/01/18 00:14:48;;;;;;;9.15;5.82;;;;;2.70;95651.00;;;;4898589;29;20182;-62
2023/01/18 00:17:15;;;;;;;8.80;5.43;;;;;2.70;95661.00;;;;4899220;29;20497;-64
2023/01/18 00:19:41;;;;;;;11.68;5.65;;;;;2.80;95656.00;;;;4901525;29;20052;-63
2023/01/18 00:22:08;;;;;;;11.00;6.30;;;;;2.70;95658.00;;;;4900343;29;20557;-64
2023/01/18 00:24:34;;;;;;;10.55;6.00;;;;;2.70;95660.00;;;;4900041;29;20037;-62
2023/01/18 00:27:00;;;;;;;10.55;6.00;;;;;2.70;95661.00;;;;4901366;29;20052;-64
2023/01/18 00:29:30;;;;;;;9.32;6.43;;;;;2.70;95663.00;;;;4898653;29;20056;-63
2023/01/18 00:31:56;;;;;;;10.80;6.43;;;;;2.80;95670.00;;;;4899983;29;20060;-62
2023/01/18 00:34:23;;;;;;;11.50;6.00;;;;;2.80;95662.00;;;;4898914;29;20045;-63
2023/01/18 00:36:49;;;;;;;9.80;6.63;;;;;2.70;95664.00;;;;4899662;29;20048;-63
2023/01/18 00:39:16;;;;;;;12.27;6.35;;;;;2.70;95657.00;;;;4899754;29;20045;-63
2023/01/18 00:43:37;;;;;;;9.25;6.40;;;;;2.80;95665.00;;;;4899619;29;20067;-62
2023/01/18 00:44:29;;;;;;;12.35;5.80;;;;;2.70;95662.00;;;;4898942;29;20387;-63
2023/01/18 00:46:55;;;;;;;10.82;6.85;;;;;2.60;95657.00;;;;4899335;29;20052;-63
2023/01/18 00:49:22;;;;;;;9.10;5.93;;;;;2.60;95657.00;;;;4899348;29;20056;-63
2023/01/18 00:51:51;;;;;;;11.63;7.25;;;;;2.70;95664.00;;;;4898756;29;20113;-63
2023/01/18 00:54:17;;;;;;;10.20;5.53;;;;;2.80;95672.00;;;;4898721;29;20040;-63
2023/01/18 00:56:44;;;;;;;9.57;6.00;;;;;2.90;95668.00;;;;4898883;29;20044;-63
2023/01/18 00:59:10;;;;;;;10.00;6.05;;;;;2.90;95676.00;;;;4898866;29;20048;-63
2023/01/18 01:01:37;;;;;;;10.05;6.57;;;;;2.90;95673.00;;;;4898698;29;20051;-62
2023/01/18 01:06:48;;;;;;;10.23;6.60;;;;;2.80;95677.00;;;;4899178;29;20053;-63
2023/01/18 01:09:28;;;;;;;10.88;7.20;;;;;2.70;95685.00;;;;4898715;29;20064;-62
2023/01/18 01:26:09;;;;;;;13.60;6.43;;;;;2.60;95710.00;;;;4904090;29;20056;-62
2023/01/18 01:28:44;;;;;;;8.98;6.07;;;;;2.60;95705.00;;;;4900415;29;20494;-62
2023/01/18 01:31:13;;;;;;;9.63;6.53;;;;;2.70;95714.00;;;;4898906;29;20053;-61
2023/01/18 01:33:40;;;;;;;9.60;6.28;;;;;2.80;95721.00;;;;4899830;29;20072;-61
2023/01/18 01:36:18;;;;;;;8.32;5.68;;;;;2.80;95716.00;;;;4882447;29;20045;-62
2023/01/18 01:38:45;;;;;;;11.00;6.68;;;;;2.90;95723.00;;;;4899682;29;20059;-62
2023/01/18 01:41:26;;;;;;;9.07;6.05;;;;;3.00;95730.00;;;;4899837;29;20049;-62
2023/01/18 01:44:01;;;;;;;10.23;6.25;;;;;3.00;95725.00;;;;4899665;29;20052;-63
2023/01/18 01:46:49;;;;;;;7.80;6.05;;;;;3.10;95736.00;;;;4899174;29;20115;-62
2023/01/18 01:49:25;;;;;;;7.78;5.63;;;;;3.00;95741.00;;;;4899052;29;20056;-62
2023/01/18 01:52:08;;;;;;;8.80;5.70;;;;;3.00;95744.00;;;;4898949;29;20516;-62
2023/01/18 01:54:46;;;;;;;7.72;5.45;;;;;3.00;95750.00;;;;4897361;29;20520;-61
2023/01/18 01:57:21;;;;;;;8.35;5.63;;;;;3.00;95752.00;;;;4898106;29;20077;-60
2023/01/18 02:00:00;;;;;;;8.00;5.65;;;;;3.00;95758.00;;;;4899560;29;20502;-61
2023/01/18 02:02:39;;;;;;;8.48;5.75;;;;;3.10;95766.00;;;;4898652;29;20123;-59
2023/01/18 02:05:08;;;;;;;9.55;5.65;;;;;3.10;95764.00;;;;4898843;29;20048;-60
2023/01/18 02:07:34;;;;;;;9.30;5.65;;;;;3.00;95767.00;;;;4899361;29;20048;-61
2023/01/18 02:10:03;;;;;;;8.93;5.18;;;;;3.00;95776.00;;;;4899417;29;20052;-61
2023/01/18 02:12:30;;;;;;;7.57;5.47;;;;;3.10;95775.00;;;;4897994;29;20052;-61
2023/01/18 02:14:57;;;;;;;7.70;5.38;;;;;3.10;95770.00;;;;4898777;29;20514;-63
2023/01/18 02:18:01;;;;;;;10.60;5.55;;;;;3.10;95778.00;;;;4899488;29;20045;-61
2023/01/18 02:20:39;;;;;;;11.00;5.25;;;;;3.10;95771.00;;;;4912892;29;20091;-61
2023/01/18 02:23:40;;;;;;;11.00;5.22;;;;;3.10;95775.00;;;;4897699;29;20554;-61
2023/01/18 02:26:38;;;;;;;9.55;5.32;;;;;3.10;95778.00;;;;4898095;29;20092;-61
2023/01/18 02:29:08;;;;;;;8.88;4.70;;;;;3.00;95782.00;;;;4897631;29;20506;-61
2023/01/18 02:31:45;;;;;;;6.30;4.75;;;;;3.10;95788.00;;;;4898825;29;20612;-62
2023/01/18 02:34:34;;;;;;;7.53;4.70;;;;;3.10;95792.00;;;;4898723;29;20044;-60
2023/01/18 02:37:38;;;;;;;6.60;4.85;;;;;3.10;95791.00;;;;4898033;29;20119;-61
2023/01/18 02:40:23;;;;;;;10.07;4.85;;;;;3.00;95792.00;;;;4898170;29;20525;-61
2023/01/18 02:48:34;;;;;;;6.07;4.30;;;;;2.90;95801.00;;;;4899031;29;20044;-61
2023/01/18 02:51:00;;;;;;;5.82;4.28;;;;;2.90;95790.00;;;;4897389;29;20049;-61
2023/01/18 02:53:27;;;;;;;7.65;4.55;;;;;2.90;95803.00;;;;4898026;29;20052;-62
2023/01/18 02:56:00;;;;;;;11.73;5.03;;;;;2.90;95793.00;;;;4896147;29;20048;-62
2023/01/18 02:58:32;;;;;;;6.25;4.70;;;;;2.90;95799.00;;;;4898160;29;20502;-62
2023/01/18 03:01:04;;;;;;;8.63;4.20;;;;;2.80;95808.00;;;;4896993;29;20059;-62
2023/01/18 03:03:31;;;;;;;4.22;3.58;;;;;2.80;95806.00;;;;4897856;29;20496;-63
2023/01/18 03:06:00;;;;;;;7.35;3.97;;;;;2.80;95802.00;;;;4896082;29;20044;-61
2023/01/18 03:08:37;;;;;;;4.95;3.65;;;;;2.90;95804.00;;;;4896782;29;20053;-62
2023/01/18 03:11:13;;;;;;;6.63;4.72;;;;;2.80;95813.00;;;;4896796;29;20049;-61
2023/01/18 03:13:59;;;;;;;5.80;3.97;;;;;2.80;95806.00;;;;4896700;29;20526;-62
2023/01/18 03:17:03;;;;;;;7.60;4.35;;;;;2.80;95810.00;;;;4894964;29;20454;-61
2023/01/18 03:20:06;;;;;;;5.43;3.72;;;;;2.80;95813.00;;;;4895745;29;20052;-62
2023/01/18 03:25:33;;;;;;;5.03;3.65;;;;;2.70;95819.00;;;;4904684;29;20100;-62
2023/01/18 03:33:46;;;;;;;6.47;3.50;;;;;2.50;95831.00;;;;4907273;29;20080;-62
2023/01/18 03:36:20;;;;;;;4.78;3.70;;;;;2.50;95832.00;;;;4906825;29;20048;-62
2023/01/18 03:38:52;;;;;;;5.35;4.07;;;;;2.50;95830.00;;;;4907494;29;20251;-61
2023/01/18 03:41:20;;;;;;;6.55;3.90;;;;;2.50;95829.00;;;;4907734;29;20044;-62
2023/01/18 03:43:50;;;;;;;5.78;4.03;;;;;2.40;95832.00;;;;4905938;29;20073;-62
2023/01/18 03:46:19;;;;;;;6.63;3.92;;;;;2.50;95845.00;;;;4904634;29;20052;-61
2023/01/18 03:48:46;;;;;;;4.82;3.42;;;;;2.40;95846.00;;;;4905883;29;20067;-62
2023/01/18 03:51:24;;;;;;;4.43;3.50;;;;;2.40;95853.00;;;;4905400;29;20068;-61
2023/01/18 03:54:03;;;;;;;4.50;3.55;;;;;2.30;95847.00;;;;4905503;29;20049;-61
2023/01/18 03:56:53;;;;;;;6.35;3.70;;;;;2.30;95860.00;;;;4904639;29;20052;-62
2023/01/18 03:59:20;;;;;;;5.38;3.88;;;;;2.20;95859.00;;;;4904303;29;20057;-62
2023/01/18 04:01:48;;;;;;;5.55;4.05;;;;;2.10;95870.00;;;;4905907;29;20052;-61
2023/01/18 04:04:14;;;;;;;5.45;3.72;;;;;2.10;95872.00;;;;4906462;29;20044;-61
2023/01/18 04:06:41;;;;;;;6.50;3.85;;;;;2.20;95873.00;;;;4906040;29;20059;-61
2023/01/18 04:09:07;;;;;;;4.25;3.55;;;;;2.20;95877.00;;;;4906760;29;20060;-60
2023/01/18 04:11:34;;;;;;;4.32;3.60;;;;;2.20;95884.00;;;;4906128;29;20085;-61
2023/01/18 04:14:00;;;;;;;5.10;3.45;;;;;2.20;95886.00;;;;4906503;29;20056;-61
2023/01/18 04:16:27;;;;;;;5.57;3.75;;;;;2.20;95882.00;;;;4905730;29;20076;-60
2023/01/18 04:18:53;;;;;;;7.55;4.03;;;;;2.10;95888.00;;;;4906328;29;20506;-60
2023/01/18 04:21:20;;;;;;;9.85;4.22;;;;;2.10;95906.00;;;;4906757;29;20048;-59
2023/01/18 04:23:46;;;;;;;7.68;4.32;;;;;2.10;95903.00;;;;4907523;29;20538;-59
2023/01/18 04:26:15;;;;;;;5.13;3.90;;;;;2.10;95912.00;;;;4906988;29;20057;-60
2023/01/18 04:28:42;;;;;;;5.65;3.90;;;;;2.10;95912.00;;;;4904996;29;20058;-61
2023/01/18 04:31:08;;;;;;;5.55;4.00;;;;;2.10;95917.00;;;;4906016;29;20048;-60
2023/01/18 04:33:35;;;;;;;8.27;4.35;;;;;2.10;95920.00;;;;4905478;29;20049;-61
2023/01/18 04:36:03;;;;;;;6.93;4.15;;;;;2.10;95921.00;;;;4904655;29;20048;-61
2023/01/18 04:38:29;;;;;;;7.70;4.38;;;;;2.10;95927.00;;;;4905190;29;20498;-61
2023/01/18 04:41:04;;;;;;;6.90;4.20;;;;;2.20;95923.00;;;;4904700;29;20048;-61
2023/01/18 04:43:30;;;;;;;4.78;3.63;;;;;2.20;95924.00;;;;4904411;29;20052;-60
2023/01/18 04:45:57;;;;;;;4.47;3.38;;;;;2.20;95927.00;;;;4905052;29;20123;-61
2023/01/18 04:48:24;;;;;;;6.07;3.42;;;;;2.10;95933.00;;;;4905019;29;20044;-61
2023/01/18 04:50:50;;;;;;;4.93;3.38;;;;;2.00;95928.00;;;;4902839;29;20108;-61
2023/01/18 04:53:17;;;;;;;4.88;3.10;;;;;2.00;95939.00;;;;4901075;29;20052;-62
2023/01/18 04:55:44;;;;;;;6.35;4.35;;;;;2.00;95945.00;;;;4901364;29;20056;-61
2023/01/18 04:58:11;;;;;;;5.82;4.03;;;;;2.00;95940.00;;;;4901305;29;20513;-60
2023/01/18 05:03:26;;;;;;;6.00;3.83;;;;;2.00;95951.00;;;;4988764;23;20063;-61
2023/01/18 05:05:54;;;;;;;6.68;3.63;;;;;1.90;95950.00;;;;4898648;29;20068;-62
2023/01/18 05:08:20;;;;;;;6.32;4.30;;;;;2.00;95959.00;;;;4899301;29;20080;-63
2023/01/18 05:10:47;;;;;;;6.30;3.95;;;;;2.10;95963.00;;;;4899115;29;20056;-62
2023/01/18 05:13:13;;;;;;;7.20;3.80;;;;;2.10;95960.00;;;;4897954;29;20049;-62
2023/01/18 05:15:40;;;;;;;4.82;3.75;;;;;2.10;95965.00;;;;4897284;29;20049;-62
2023/01/18 05:18:06;;;;;;;7.65;3.88;;;;;2.10;95962.00;;;;4898975;29;20049;-62
2023/01/18 05:20:33;;;;;;;7.93;4.30;;;;;2.10;95974.00;;;;4897939;29;20049;-62
2023/01/18 05:23:09;;;;;;;6.80;3.10;;;;;2.20;95988.00;;;;4898904;29;20057;-63
2023/01/18 05:25:36;;;;;;;6.35;3.60;;;;;2.20;95981.00;;;;4897303;29;20056;-62
2023/01/18 05:28:02;;;;;;;5.55;3.65;;;;;2.10;95991.00;;;;4898886;29;20335;-63
2023/01/18 05:30:29;;;;;;;5.38;4.13;;;;;2.10;95993.00;;;;4898646;29;20104;-62
2023/01/18 05:32:55;;;;;;;6.35;3.30;;;;;2.10;95999.00;;;;4898815;29;20052;-62
2023/01/18 05:35:22;;;;;;;5.07;3.47;;;;;2.10;95996.00;;;;4898092;29;20048;-62
2023/01/18 05:37:49;;;;;;;6.57;3.30;;;;;2.00;96005.00;;;;4897859;29;20040;-63
2023/01/18 05:40:15;;;;;;;7.78;4.10;;;;;2.00;96012.00;;;;4898728;29;20493;-62
2023/01/18 05:42:42;;;;;;;5.28;3.83;;;;;2.10;96018.00;;;;4898667;29;20048;-62
2023/01/18 05:45:09;;;;;;;5.78;3.67;;;;;2.10;96023.00;;;;4897960;29;20557;-62
2023/01/18 05:47:36;;;;;;;6.47;3.65;;;;;2.10;96025.00;;;;4898620;29;20442;-62
2023/01/18 05:50:02;;;;;;;5.75;3.65;;;;;2.00;96019.00;;;;4901768;29;20048;-63
2023/01/18 05:52:29;;;;;;;7.55;3.80;;;;;2.00;96021.00;;;;4904514;29;20044;-62
2023/01/18 05:54:55;;;;;;;6.15;3.83;;;;;2.00;96028.00;;;;4904063;29;20092;-63
2023/01/18 05:57:22;;;;;;;6.03;3.95;;;;;2.10;96035.00;;;;4904194;29;20049;-62
2023/01/18 05:59:48;;;;;;;6.82;3.90;;;;;2.20;96036.00;;;;4904275;29;20053;-62
2023/01/18 06:02:15;;;;;;;5.72;3.75;;;;;2.10;96037.00;;;;4905459;29;20044;-59
2023/01/18 06:04:43;;;;;;;6.75;4.60;;;;;2.20;96050.00;;;;4903818;29;20073;-63
2023/01/18 06:07:10;;;;;;;5.10;3.70;;;;;2.10;96048.00;;;;4903809;29;20068;-62
2023/01/18 06:09:36;;;;;;;6.25;3.50;;;;;2.00;96060.00;;;;4902883;29;20048;-61
2023/01/18 06:12:03;;;;;;;5.95;3.88;;;;;2.00;96056.00;;;;4903636;29;20112;-61
2023/01/18 06:14:29;;;;;;;6.47;3.63;;;;;2.00;96062.00;;;;4902849;29;20052;-61
2023/01/18 06:16:56;;;;;;;7.00;4.07;;;;;2.00;96075.00;;;;4900704;29;20041;-62
2023/01/18 06:19:23;;;;;;;4.47;3.28;;;;;2.00;96072.00;;;;4902135;29;20116;-62
2023/01/18 06:21:49;;;;;;;6.40;4.20;;;;;2.10;96077.00;;;;4900883;29;20056;-62
2023/01/18 06:24:16;;;;;;;5.43;3.65;;;;;2.10;96086.00;;;;4902408;29;20049;-60
2023/01/18 06:26:42;;;;;;;9.15;4.18;;;;;2.20;96089.00;;;;4901599;29;20048;-62
2023/01/18 06:29:08;;;;;;;5.25;3.58;;;;;2.20;96092.00;;;;4901421;29;20068;-61
2023/01/18 06:31:35;;;;;;;6.95;4.13;;;;;2.20;96102.00;;;;4903356;29;20056;-61
2023/01/18 06:34:08;;;;;;;4.75;3.33;;;;;2.20;96101.00;;;;4902502;29;20055;-60
2023/01/18 06:36:38;;;;;;;7.68;3.63;;;;;2.10;96098.00;;;;4902503;29;20048;-61
2023/01/18 06:39:05;;;;;;;5.90;3.63;;;;;2.10;96106.00;;;;4902781;29;20052;-62
2023/01/18 06:41:32;;;;;;;4.47;3.20;;;;;2.10;96114.00;;;;4902541;29;20119;-61
2023/01/18 06:43:58;;;;;;;4.68;3.60;;;;;2.10;96116.00;;;;4901197;29;20052;-60
2023/01/18 06:46:27;;;;;;;6.97;3.67;;;;;2.20;96125.00;;;;4902072;29;20045;-61
2023/01/18 06:48:54;;;;;;;6.07;3.45;;;;;2.20;96126.00;;;;4902483;29;20052;-61
2023/01/18 06:51:20;;;;;;;5.53;3.42;;;;;2.20;96134.00;;;;4902043;29;20041;-60
2023/01/18 06:53:48;;;;;;;6.45;3.42;;;;;2.20;96141.00;;;;4901173;29;20500;-62
2023/01/18 06:56:15;;;;;;;5.07;3.75;;;;;2.10;96141.00;;;;4901505;29;20404;-60
2023/01/18 06:58:42;;;;;;;6.75;3.60;;;;;2.10;96155.00;;;;4902238;29;20053;-61
2023/01/18 07:01:09;;;;;;;7.63;4.00;;;;;2.10;96153.00;;;;4899448;29;20330;-61
2023/01/18 07:03:37;;;;;;;7.45;4.40;;;;;2.20;96173.00;;;;4899196;29;20421;-61
2023/01/18 07:06:05;;;;;;;6.10;3.65;;;;;2.20;96171.00;;;;4899531;29;20077;-61
2023/01/18 07:08:31;;;;;;;5.47;3.58;;;;;2.10;96175.00;;;;4899492;29;20592;-62
2023/01/18 07:11:02;;;;;;;9.20;4.28;;;;;2.10;96169.00;;;;4899533;29;20413;-61
2023/01/18 07:13:28;;;;;;;6.72;3.75;;;;;2.10;96173.00;;;;4901303;29;20053;-61
2023/01/18 07:16:00;;;;;;;6.88;3.72;;;;;2.10;96181.00;;;;4901537;29;20210;-61
2023/01/18 07:18:28;;;;;;;10.52;4.13;;;;;2.10;96186.00;;;;4900283;29;20060;-60
2023/01/18 07:21:00;;;;;;;6.13;3.83;;;;;2.10;96182.00;;;;4901523;29;20428;-62
2023/01/18 07:23:28;;;;;;;7.88;4.18;;;;;2.20;96196.00;;;;4902627;29;20057;-62
2023/01/18 07:26:05;;;;;;;7.18;4.10;;;;;2.10;96198.00;;;;4900295;29;20106;-62
2023/01/18 07:28:33;;;;;;;10.27;3.63;;;;;2.00;96200.00;;;;4898404;29;20048;-63
2023/01/18 07:31:00;;;;;;;7.95;4.30;;;;;2.00;96204.00;;;;4898000;29;20513;-61
2023/01/18 07:33:28;;;;;;;6.57;3.55;;;;;2.00;96214.00;;;;4897857;29;20052;-62
2023/01/18 07:35:56;;;;;;;7.50;4.40;;;;;2.00;96222.00;;;;4897100;29;20108;-61
2023/01/18 07:38:24;;;;;;;5.93;3.65;;;;;2.00;96218.00;;;;4896741;29;20055;-61
2023/01/18 07:40:56;;;;;;;7.97;3.90;;;;;2.00;96230.00;;;;4898744;29;20048;-61
2023/01/18 07:43:23;;;;;;;5.00;3.97;;;;;2.00;96237.00;;;;4898480;29;20418;-62
2023/01/18 07:45:53;;;;;;;6.30;3.65;;;;;2.10;96239.00;;;;4896901;29;20057;-61
2023/01/18 07:48:20;;;;;;;7.22;4.65;;;;;2.10;96249.00;;;;4896567;29;20041;-61
2023/01/18 07:50:54;;;;;;;5.53;4.22;;;;;2.10;96245.00;;;;4897744;29;20116;-62
2023/01/18 07:53:21;;;;;;;6.53;3.67;;;;;2.10;96249.00;;;;4898836;29;20044;-60
2023/01/18 07:55:48;;;;;;;6.13;3.90;;;;;2.10;96246.00;;;;4898531;29;20049;-60
2023/01/18 07:58:16;;;;;;;9.93;4.45;;;;;2.20;96255.00;;;;4898774;29;20493;-60
2023/01/18 08:00:43;;;;;;;7.03;3.90;;;;;2.20;96262.00;;;;4901664;29;20040;-62
2023/01/18 08:03:15;;;;;;;8.18;4.20;;;;;2.20;96269.00;;;;4905571;29;20108;-60
2023/01/18 08:05:43;;;;;;;7.00;4.28;;;;;2.20;96275.00;;;;4904131;29;20059;-63
2023/01/18 08:08:11;;;;;;;6.00;3.95;;;;;2.30;96281.00;;;;4903805;29;20049;-61
2023/01/18 08:10:38;;;;;;;5.35;3.95;;;;;2.40;96288.00;;;;4904999;29;20100;-61
2023/01/18 08:13:08;;;;;;;7.90;4.40;;;;;2.40;96288.00;;;;4905409;29;20127;-60
2023/01/18 08:15:35;;;;;;;5.50;4.28;;;;;2.40;96299.00;;;;4904040;29;20064;-62
2023/01/18 08:18:04;;;;;;;6.00;4.25;;;;;2.50;96300.00;;;;4905985;29;20049;-61
2023/01/18 08:20:31;;;;;;;7.45;4.75;;;;;2.50;96304.00;;;;4902081;29;20060;-61
2023/01/18 08:22:59;;;;;;;5.75;3.97;;;;;2.60;96311.00;;;;4903565;29;20048;-62
2023/01/18 08:25:31;;;;;;;6.00;4.40;;;;;2.50;96309.00;;;;4903677;29;20080;-61
2023/01/18 08:28:00;;;;;;;8.00;4.82;;;;;2.50;96315.00;;;;4906702;29;20049;-61
2023/01/18 08:30:29;;;;;;;6.68;4.32;;;;;2.60;96312.00;;;;4905433;29;20073;-62
2023/01/18 08:32:58;;;;;;;10.55;4.38;;;;;2.70;96324.00;;;;4905670;29;20056;-62
2023/01/18 08:35:28;;;;;;;9.70;5.05;;;;;2.60;96322.00;;;;4904972;29;20076;-62
2023/01/18 08:37:54;;;;;;;5.90;4.43;;;;;2.60;96335.00;;;;4902219;29;20078;-62
2023/01/18 08:40:22;;;;;;;8.45;4.57;;;;;2.60;96341.00;;;;4900827;29;20051;-61
2023/01/18 08:42:48;;;;;;;6.80;4.70;;;;;2.60;96345.00;;;;4899949;29;20060;-61
2023/01/18 08:45:16;;;;;;;8.40;4.82;;;;;2.70;96347.00;;;;4900154;29;20053;-63
2023/01/18 08:47:43;;;;;;;7.93;4.78;;;;;2.70;96359.00;;;;4902092;29;20489;-62
2023/01/18 08:50:10;;;;;;;8.15;5.00;;;;;2.80;96352.00;;;;4899669;29;20091;-62
2023/01/18 08:52:36;;;;;;;11.23;5.07;;;;;2.90;96363.00;;;;4899563;29;20052;-61
2023/01/18 08:55:04;;;;;;;9.02;5.03;;;;;2.90;96358.00;;;;4900834;29;20060;-62
2023/01/18 08:57:31;;;;;;;8.77;5.53;;;;;3.00;96371.00;;;;4903889;29;20395;-62
2023/01/18 08:59:58;;;;;;;10.80;5.90;;;;;2.90;96371.00;;;;4901320;29;20054;-61
2023/01/18 09:02:24;;;;;;;7.68;4.78;;;;;2.90;96376.00;;;;4900042;29;20051;-61
2023/01/18 09:04:52;;;;;;;8.73;5.80;;;;;2.90;96378.00;;;;4899349;29;20104;-62
2023/01/18 09:07:19;;;;;;;13.13;6.22;;;;;3.00;96380.00;;;;4899908;29;20170;-62
2023/01/18 09:09:45;;;;;;;9.32;4.80;;;;;3.10;96387.00;;;;4900025;29;20111;-62
2023/01/18 09:12:12;;;;;;;9.63;4.88;;;;;3.10;96400.00;;;;4899715;29;20116;-62
2023/01/18 09:14:39;;;;;;;17.52;12.75;;;;;3.20;96400.00;;;;4899565;29;20100;-62
2023/01/18 09:17:05;;;;;;;9.50;6.55;;;;;3.20;96406.00;;;;4901411;29;20049;-62
2023/01/18 09:19:32;;;;;;;8.80;5.75;;;;;3.30;96409.00;;;;4901894;29;20052;-62
2023/01/18 09:21:58;;;;;;;7.80;5.50;;;;;3.30;96410.00;;;;4899617;29;20052;-62
2023/01/18 09:24:25;;;;;;;13.02;6.10;;;;;3.40;96419.00;;;;4901529;29;20505;-62
2023/01/18 09:26:52;;;;;;;7.40;6.07;;;;;3.40;96431.00;;;;4899372;29;20078;-62
2023/01/18 09:29:19;;;;;;;11.90;5.65;;;;;3.50;96424.00;;;;4901470;29;20060;-62
2023/01/18 09:31:45;;;;;;;9.65;4.82;;;;;3.60;96427.00;;;;4901943;29;20052;-62
2023/01/18 09:34:12;;;;;;;9.32;5.25;;;;;3.70;96428.00;;;;4900477;29;20059;-61
2023/01/18 09:36:49;;;;;;;11.07;5.93;;;;;3.80;96430.00;;;;4901492;29;20053;-63
2023/01/18 09:39:15;;;;;;;13.93;7.00;;;;;3.80;96436.00;;;;4900417;29;20057;-62
2023/01/18 09:41:47;;;;;;;7.10;5.00;;;;;3.80;96445.00;;;;4899832;29;20110;-61
2023/01/18 09:44:54;;;;;;;9.95;5.28;;;;;3.90;96446.00;;;;4899306;29;20048;-61
2023/01/18 09:47:48;;;;;;;9.10;5.43;;;;;4.00;96459.00;;;;4919990;29;20047;-62
2023/01/18 09:50:17;;;;;;;13.33;6.97;;;;;4.00;96462.00;;;;4934390;29;20051;-62
2023/01/18 09:53:01;;;;;;;10.10;5.88;;;;;4.00;96465.00;;;;4906748;29;20056;-62
2023/01/18 09:55:44;;;;;;;6.88;4.35;;;;;4.10;96486.00;;;;4904963;29;20457;-62
2023/01/18 09:58:31;;;;;;;7.80;4.50;;;;;4.10;96484.00;;;;4906106;29;20059;-62
2023/01/18 10:01:04;;;;;;;9.18;5.10;;;;;4.10;96485.00;;;;4906101;29;20045;-61
2023/01/18 10:03:45;;;;;;;7.88;4.82;;;;;4.10;96484.00;;;;4907487;29;20084;-62
2023/01/18 10:06:20;;;;;;;9.45;4.60;;;;;4.10;96477.00;;;;4908257;29;20059;-62
2023/01/18 10:08:54;;;;;;;11.63;4.78;;;;;4.10;96490.00;;;;4904699;29;20053;-61
2023/01/18 10:11:46;;;;;;;9.15;4.70;;;;;4.20;96487.00;;;;4903276;29;20048;-62
2023/01/18 10:14:28;;;;;;;7.93;4.75;;;;;4.20;96486.00;;;;4902306;29;20052;-62
2023/01/18 10:16:59;;;;;;;10.10;4.90;;;;;4.30;96491.00;;;;4901962;29;20290;-62
2023/01/18 10:19:31;;;;;;;9.55;5.75;;;;;4.30;96492.00;;;;4902764;29;20052;-62
2023/01/18 10:22:02;;;;;;;9.02;5.00;;;;;4.40;96492.00;;;;4902527;29;20059;-62
2023/01/18 10:24:49;;;;;;;7.80;4.85;;;;;4.40;96499.00;;;;4902524;29;20118;-62
2023/01/18 10:27:34;;;;;;;8.30;4.40;;;;;4.40;96501.00;;;;4901768;29;20053;-62
2023/01/18 10:30:10;;;;;;;9.45;5.30;;;;;4.50;96502.00;;;;4900209;29;20049;-62
2023/01/18 10:32:37;;;;;;;7.50;4.55;;;;;4.50;96506.00;;;;4900793;29;20053;-62
2023/01/18 10:35:31;;;;;;;12.98;5.00;;;;;4.60;96511.00;;;;4903277;29;20104;-62
2023/01/18 10:38:03;;;;;;;7.95;4.65;;;;;4.60;96512.00;;;;4903335;29;20052;-63
2023/01/18 10:40:31;;;;;;;8.35;4.57;;;;;4.70;96513.00;;;;4902378;29;20560;-61
2023/01/18 10:43:01;;;;;;;11.48;4.85;;;;;4.70;96511.00;;;;4902264;29;20478;-62
2023/01/18 10:45:31;;;;;;;15.05;5.15;;;;;4.70;96528.00;;;;4901392;29;20094;-63
2023/01/18 10:48:30;;;;;;;12.60;4.93;;;;;4.80;96525.00;;;;4901583;29;20049;-62
2023/01/18 10:50:59;;;;;;;9.98;5.82;;;;;4.80;96526.00;;;;4904127;29;20085;-62
2023/01/18 10:53:30;;;;;;;6.45;4.68;;;;;4.80;96535.00;;;;4902855;29;20052;-62
2023/01/18 10:56:12;;;;;;;9.77;4.85;;;;;4.80;96535.00;;;;4903048;29;20056;-62
2023/01/18 10:58:59;;;;;;;11.77;4.85;;;;;4.80;96535.00;;;;4902365;29;20053;-62
2023/01/18 11:01:32;;;;;;;14.48;5.18;;;;;4.80;96537.00;;;;4902073;29;20048;-62
2023/01/18 11:04:18;;;;;;;13.65;5.40;;;;;4.80;96542.00;;;;4901699;29;20056;-62
2023/01/18 11:06:50;;;;;;;11.98;5.38;;;;;4.80;96546.00;;;;4901530;29;20049;-62
2023/01/18 11:09:40;;;;;;;12.93;5.28;;;;;4.80;96547.00;;;;4902115;29;20053;-61
2023/01/18 11:12:32;;;;;;;10.48;5.13;;;;;4.90;96551.00;;;;4903095;29;20510;-61
2023/01/18 11:15:21;;;;;;;12.77;5.05;;;;;5.00;96555.00;;;;4896804;29;20041;-61
2023/01/18 11:17:55;;;;;;;13.52;5.30;;;;;4.90;96539.00;;;;4897289;29;20048;-61
2023/01/18 11:20:29;;;;;;;;;;;;;5.00;96548.00;;;;4897956;29;20053;-61
2023/01/18 11:23:16;;;;;;;9.60;5.45;;;;;4.90;96554.00;;;;4897155;29;19927;-61
2023/01/18 11:26:03;;;;;;;9.50;5.40;;;;;4.90;96550.00;;;;4896850;29;20391;-61
2023/01/18 11:28:35;;;;;;;9.77;4.90;;;;;4.90;96545.00;;;;4896137;29;20048;-61
2023/01/18 11:31:13;;;;;;;12.90;5.68;;;;;4.80;96550.00;;;;4897095;29;20577;-62
2023/01/18 11:33:49;;;;;;;12.10;5.85;;;;;4.80;96550.00;;;;4897000;29;20497;-62
2023/01/18 11:36:18;;;;;;;12.05;5.10;;;;;4.90;96548.00;;;;4898900;29;20585;-62
2023/01/18 11:38:45;;;;;;;8.70;4.70;;;;;4.90;96542.00;;;;4900723;29;20073;-62
2023/01/18 11:41:18;;;;;;;9.43;5.00;;;;;5.10;96548.00;;;;4899388;29;20100;-62
2023/01/18 11:44:00;;;;;;;12.15;5.38;;;;;5.40;96543.00;;;;4899591;29;20054;-63
2023/01/18 11:46:42;;;;;;;7.93;4.72;;;;;5.50;96537.00;;;;4900184;29;20060;-62
2023/01/18 11:49:26;;;;;;;20.88;5.13;;;;;5.40;96542.00;;;;4899404;29;20101;-62
2023/01/18 11:52:01;;;;;;;9.85;4.57;;;;;5.40;96547.00;;;;4900588;29;20497;-62
2023/01/18 11:54:45;;;;;;;6.97;4.65;;;;;5.60;96546.00;;;;4900095;29;20052;-60
2023/01/18 11:57:13;;;;;;;10.75;5.43;;;;;5.70;96552.00;;;;4900796;29;20506;-62
2023/01/18 11:59:42;;;;;;;11.88;5.13;;;;;5.90;96550.00;;;;4899384;29;20075;-62
2023/01/18 12:02:28;;;;;;;10.25;5.43;;;;;6.00;96544.00;;;;4900374;29;20410;-62
2023/01/18 12:05:24;;;;;;;8.98;4.90;;;;;6.10;96555.00;;;;4899901;29;20053;-62
2023/01/18 12:08:29;;;;;;;5.53;4.22;;;;;6.00;96558.00;;;;4900312;29;20049;-63
2023/01/18 12:11:08;;;;;;;7.82;4.22;;;;;5.80;96559.00;;;;4900251;29;20037;-61
2023/01/18 12:13:42;;;;;;;6.97;4.47;;;;;5.90;96569.00;;;;4899461;29;20064;-62
2023/01/18 12:16:33;;;;;;;10.77;4.97;;;;;5.90;96565.00;;;;4899608;29;20053;-60
2023/01/18 12:19:15;;;;;;;10.00;5.78;;;;;5.80;96568.00;;;;4900149;29;20080;-60
2023/01/18 12:22:05;;;;;;;11.98;5.45;;;;;5.80;96569.00;;;;4898887;29;20052;-60
2023/01/18 12:24:56;;;;;;;10.07;4.60;;;;;5.80;96581.00;;;;4899532;29;20052;-61
2023/01/18 12:27:53;;;;;;;8.68;4.47;;;;;5.70;96586.00;;;;4900046;29;20446;-61
2023/01/18 12:30:25;;;;;;;6.68;4.28;;;;;5.60;96584.00;;;;4901341;29;20100;-62
2023/01/18 12:33:03;;;;;;;6.47;4.18;;;;;5.70;96594.00;;;;4898763;29;20076;-62
2023/01/18 12:35:45;;;;;;;7.53;4.32;;;;;5.60;96597.00;;;;4897990;29;20045;-62
2023/01/18 12:38:17;;;;;;;7.75;3.90;;;;;5.60;96605.00;;;;4898457;29;20045;-61
2023/01/18 12:41:03;;;;;;;5.60;4.07;;;;;5.60;96604.00;;;;4899741;29;20100;-62
2023/01/18 12:43:33;;;;;;;8.38;4.38;;;;;5.60;96605.00;;;;4899839;29;20561;-61
2023/01/18 12:46:15;;;;;;;11.55;4.82;;;;;5.60;96604.00;;;;4897391;29;20409;-63
2023/01/18 12:49:00;;;;;;;10.32;5.15;;;;;5.60;96611.00;;;;4899699;29;20494;-63
2023/01/18 12:51:31;;;;;;;11.75;4.88;;;;;5.70;96602.00;;;;4898572;29;20044;-62
2023/01/18 12:54:04;;;;;;;6.78;4.43;;;;;5.70;96603.00;;;;4899492;29;20081;-63
2023/01/18 12:56:36;;;;;;;8.45;4.30;;;;;5.70;96606.00;;;;4899614;29;20073;-63
2023/01/18 12:59:07;;;;;;;11.60;4.70;;;;;5.80;96609.00;;;;4899586;29;20401;-63
2023/01/18 13:01:39;;;;;;;11.85;5.00;;;;;5.90;96603.00;;;;4897884;29;20081;-62
2023/01/18 13:04:16;;;;;;;7.75;4.13;;;;;5.90;96614.00;;;;4898849;29;20045;-62
2023/01/18 13:06:44;;;;;;;8.25;4.38;;;;;5.90;96609.00;;;;4899283;29;20052;-60
2023/01/18 13:09:17;;;;;;;9.95;5.13;;;;;5.90;96615.00;;;;4899162;29;20560;-61
2023/01/18 13:11:44;;;;;;;7.55;4.30;;;;;6.00;96622.00;;;;4899259;29;20045;-62
2023/01/18 13:14:26;;;;;;;10.18;4.53;;;;;6.20;96616.00;;;;4898771;29;20056;-62
2023/01/18 13:17:07;;;;;;;8.18;4.03;;;;;6.30;96622.00;;;;4899120;29;20112;-63
2023/01/18 13:19:53;;;;;;;7.22;4.43;;;;;6.30;96631.00;;;;4899112;29;20051;-61
2023/01/18 13:22:33;;;;;;;8.90;4.38;;;;;6.20;96628.00;;;;4899004;29;20040;-62
2023/01/18 13:25:11;;;;;;;7.93;3.78;;;;;6.30;96634.00;;;;4898483;29;20048;-62